Time;durP1;ratioP1;P1;durP2;ratioP2;P2;SDS_P1;SDS_P2;PMS_P1;PMS_P2;Temp;Humidity;BMP_temperature;BMP_pressure;BME280_temperature;BME280_humidity;BME280_pressure;Samples;Min_cycle;Max_cycle;Signal;HPM_P1;HPM_P2
2023/01/04 00:01:55;;;;;;;10.07;3.70;;;8.50;99.90;;;;;;5076340;28;20291;-82
2023/01/04 00:04:21;;;;;;;11.10;3.93;;;8.50;99.90;;;;;;5058239;28;20298;-82
2023/01/04 00:06:47;;;;;;;11.67;3.87;;;8.40;99.90;;;;;;5076561;28;20512;-82
2023/01/04 00:09:12;;;;;;;8.63;3.43;;;8.40;99.90;;;;;;5059422;28;20487;-82
2023/01/04 00:11:38;;;;;;;9.30;3.20;;;8.40;99.90;;;;;;5076690;28;20171;-81
2023/01/04 00:14:04;;;;;;;12.10;3.63;;;8.40;99.90;;;;;;5076399;28;20396;-81
2023/01/04 00:16:30;;;;;;;13.73;4.13;;;8.40;99.90;;;;;;5076028;28;20068;-81
2023/01/04 00:18:56;;;;;;;11.53;4.03;;;8.40;99.90;;;;;;5076094;28;20063;-81
2023/01/04 00:21:25;;;;;;;8.77;3.40;;;8.40;99.90;;;;;;5058258;28;20049;-81
2023/01/04 00:23:53;;;;;;;11.73;3.93;;;8.40;99.90;;;;;;5075986;28;20309;-81
2023/01/04 00:26:26;;;;;;;12.00;4.23;;;8.40;99.90;;;;;;5075850;28;20385;-81
2023/01/04 00:28:54;;;;;;;10.30;3.70;;;8.40;99.90;;;;;;5075945;28;20277;-81
2023/01/04 00:31:21;;;;;;;13.53;3.60;;;8.30;99.90;;;;;;5075858;28;20293;-80
2023/01/04 00:33:46;;;;;;;13.30;3.43;;;8.40;99.90;;;;;;5075805;28;20275;-81
2023/01/04 00:36:13;;;;;;;11.13;4.00;;;8.30;99.90;;;;;;5058275;28;20631;-81
2023/01/04 00:38:40;;;;;;;8.90;4.00;;;8.30;99.90;;;;;;5075705;28;20040;-80
2023/01/04 00:41:07;;;;;;;12.23;3.80;;;8.30;99.90;;;;;;5075642;28;20316;-80
2023/01/04 00:43:33;;;;;;;9.63;2.93;;;8.30;99.90;;;;;;5041384;28;20327;-80
2023/01/04 00:46:00;;;;;;;12.53;3.70;;;8.30;99.90;;;;;;5075271;28;20306;-80
2023/01/04 00:48:26;;;;;;;12.60;4.00;;;8.40;99.90;;;;;;5075983;28;20289;-80
2023/01/04 00:50:52;;;;;;;12.37;4.10;;;8.40;99.90;;;;;;5057454;28;20287;-79
2023/01/04 00:53:18;;;;;;;10.83;4.37;;;8.40;99.90;;;;;;5075393;28;20293;-79
2023/01/04 00:55:44;;;;;;;13.27;4.10;;;8.40;99.90;;;;;;5074213;28;20496;-79
2023/01/04 00:58:10;;;;;;;9.47;3.40;;;8.40;99.90;;;;;;5075578;28;20048;-79
2023/01/04 01:00:35;;;;;;;11.80;3.77;;;8.40;99.90;;;;;;5041179;28;20794;-79
2023/01/04 01:03:02;;;;;;;9.97;3.47;;;8.40;99.90;;;;;;5057255;28;20094;-79
2023/01/04 01:05:28;;;;;;;10.60;3.53;;;8.40;99.90;;;;;;5075420;28;20473;-80
2023/01/04 01:07:53;;;;;;;13.70;4.00;;;8.40;99.90;;;;;;5075096;28;20333;-80
2023/01/04 01:10:19;;;;;;;14.07;3.87;;;8.40;99.90;;;;;;5075570;28;20044;-80
2023/01/04 01:12:45;;;;;;;9.73;3.30;;;8.40;99.90;;;;;;5057344;28;20461;-80
2023/01/04 01:15:11;;;;;;;12.37;3.67;;;8.40;99.90;;;;;;5075204;28;20072;-79
2023/01/04 01:17:37;;;;;;;6.57;3.47;;;8.40;99.90;;;;;;5074862;28;20052;-80
2023/01/04 01:20:04;;;;;;;9.73;4.03;;;8.40;99.90;;;;;;5040631;28;20295;-79
2023/01/04 01:22:30;;;;;;;9.13;3.87;;;8.40;99.90;;;;;;5074799;28;20048;-80
2023/01/04 01:24:56;;;;;;;13.30;3.93;;;8.40;99.90;;;;;;5074683;28;20294;-80
2023/01/04 01:27:22;;;;;;;6.70;3.07;;;8.40;99.90;;;;;;5056964;28;20275;-80
2023/01/04 01:29:48;;;;;;;8.00;3.53;;;8.40;99.90;;;;;;5074392;28;20048;-80
2023/01/04 01:32:13;;;;;;;10.73;3.90;;;8.40;99.90;;;;;;5074443;28;20045;-80
2023/01/04 01:34:39;;;;;;;7.87;3.57;;;8.40;99.90;;;;;;5039978;28;20060;-79
2023/01/04 01:37:05;;;;;;;8.97;4.10;;;8.40;99.90;;;;;;5074562;28;20056;-80
2023/01/04 01:39:30;;;;;;;9.57;4.50;;;8.30;99.90;;;;;;5075005;28;20044;-80
2023/01/04 01:41:58;;;;;;;7.33;3.27;;;8.40;99.90;;;;;;5041040;28;20052;-79
2023/01/04 01:44:42;;;;;;;7.73;3.40;;;8.40;99.90;;;;;;5074321;28;20053;-80
2023/01/04 01:47:14;;;;;;;8.87;3.43;;;8.40;99.90;;;;;;5074410;28;20755;-80
2023/01/04 01:49:41;;;;;;;7.83;3.33;;;8.40;99.90;;;;;;5074298;28;20860;-80
2023/01/04 01:52:15;;;;;;;7.40;3.43;;;8.40;99.90;;;;;;5056656;28;20313;-80
2023/01/04 01:54:46;;;;;;;9.40;3.53;;;8.40;99.90;;;;;;5074776;28;20271;-80
2023/01/04 01:57:17;;;;;;;6.63;3.20;;;8.40;99.90;;;;;;5074431;28;20052;-79
2023/01/04 01:59:44;;;;;;;10.17;3.77;;;8.40;99.90;;;;;;5074153;28;20278;-79
2023/01/04 02:02:11;;;;;;;6.43;3.47;;;8.50;99.90;;;;;;5074065;28;20366;-79
2023/01/04 02:04:40;;;;;;;6.80;2.70;;;8.50;99.90;;;;;;5056143;28;20299;-79
2023/01/04 02:07:08;;;;;;;8.27;2.87;;;8.40;99.90;;;;;;5055775;28;20779;-79
2023/01/04 02:09:35;;;;;;;5.83;2.83;;;8.50;99.90;;;;;;5073968;28;20361;-80
2023/01/04 02:12:01;;;;;;;6.20;2.70;;;8.50;99.90;;;;;;5056178;28;20270;-79
2023/01/04 02:14:27;;;;;;;5.73;2.60;;;8.50;99.90;;;;;;5056549;28;20361;-79
2023/01/04 02:17:05;;;;;;;8.63;2.90;;;8.50;99.90;;;;;;5074408;28;20044;-79
2023/01/04 02:19:40;;;;;;;7.40;2.67;;;8.50;99.90;;;;;;5074078;28;20739;-79
2023/01/04 02:22:05;;;;;;;5.80;2.55;;;8.50;99.90;;;;;;5074422;28;20279;-79
2023/01/04 02:24:45;;;;;;;8.43;3.33;;;8.50;99.90;;;;;;5073653;28;20067;-79
2023/01/04 02:27:37;;;;;;;7.47;2.70;;;8.50;99.90;;;;;;5073810;28;20048;-79
2023/01/04 02:30:22;;;;;;;4.90;2.60;;;8.60;99.90;;;;;;5056852;28;20378;-79
2023/01/04 02:33:06;;;;;;;4.75;2.30;;;8.60;99.90;;;;;;5055911;28;20279;-79
2023/01/04 02:35:52;;;;;;;6.97;2.80;;;8.60;99.90;;;;;;5073898;28;20123;-80
2023/01/04 02:38:44;;;;;;;6.17;2.43;;;8.60;99.90;;;;;;5055796;28;20287;-79
2023/01/04 02:41:28;;;;;;;7.17;2.97;;;8.60;99.90;;;;;;5074490;28;20369;-78
2023/01/04 02:47:06;;;;;;;6.57;2.90;;;8.60;99.90;;;;;;5073503;28;20744;-79
2023/01/04 02:52:17;;;;;;;8.00;2.93;;;8.60;99.90;;;;;;5073485;28;20362;-78
2023/01/04 02:54:45;;;;;;;7.43;2.77;;;8.60;99.90;;;;;;5073408;28;20336;-78
2023/01/04 02:57:52;;;;;;;7.90;2.80;;;8.60;99.90;;;;;;5074218;28;20279;-78
2023/01/04 03:00:33;;;;;;;6.93;2.63;;;8.70;99.90;;;;;;5059958;28;20697;-79
2023/01/04 03:06:15;;;;;;;4.30;2.30;;;8.70;99.90;;;;;;5073097;28;20305;-81
2023/01/04 03:09:14;;;;;;;5.37;2.43;;;8.70;99.90;;;;;;5055956;28;20286;-81
2023/01/04 03:15:05;;;;;;;4.17;2.30;;;8.80;99.90;;;;;;5073269;28;20271;-80
2023/01/04 03:17:43;;;;;;;6.23;2.60;;;8.80;99.90;;;;;;5073545;28;20275;-80
2023/01/04 03:20:11;;;;;;;5.73;2.60;;;8.90;99.90;;;;;;5059683;28;20302;-81
2023/01/04 03:36:55;;;;;;;6.97;4.63;;;9.20;99.90;;;;;;5077414;28;20279;-80
2023/01/04 03:48:33;;;;;;;7.30;5.43;;;9.40;99.90;;;;;;5076949;28;20271;-80
2023/01/04 03:51:09;;;;;;;7.10;5.70;;;9.40;99.90;;;;;;5076668;28;20635;-81
2023/01/04 03:53:49;;;;;;;8.57;6.00;;;9.50;99.90;;;;;;5059829;28;20314;-81
2023/01/04 03:56:17;;;;;;;9.03;6.07;;;9.50;99.90;;;;;;5077156;28;20266;-82
2023/01/04 03:58:43;;;;;;;9.03;6.13;;;9.50;99.90;;;;;;5077250;28;20274;-82
2023/01/04 04:01:09;;;;;;;8.87;6.53;;;9.50;99.90;;;;;;5076671;28;20286;-82
2023/01/04 04:09:03;;;;;;;8.40;6.10;;;9.60;99.90;;;;;;5077120;28;20279;-81
2023/01/04 04:11:29;;;;;;;8.97;6.23;;;9.60;99.90;;;;;;5058665;28;20286;-81
2023/01/04 04:13:55;;;;;;;10.30;6.97;;;9.70;99.90;;;;;;5076734;28;20055;-81
2023/01/04 04:16:21;;;;;;;9.47;6.40;;;9.70;99.90;;;;;;5041891;28;20048;-81
2023/01/04 04:18:47;;;;;;;9.83;7.03;;;9.70;99.90;;;;;;5076415;28;20084;-81
2023/01/04 04:21:13;;;;;;;10.60;7.20;;;9.80;99.90;;;;;;5076110;28;20499;-81
2023/01/04 04:23:39;;;;;;;11.27;7.00;;;9.80;99.90;;;;;;5075997;28;20290;-81
2023/01/04 04:26:05;;;;;;;9.50;7.83;;;9.80;99.90;;;;;;5075902;28;20294;-81
2023/01/04 04:28:31;;;;;;;11.80;7.87;;;9.80;99.90;;;;;;5076752;28;20044;-81
2023/01/04 04:30:56;;;;;;;9.90;7.10;;;9.90;99.90;;;;;;5075737;28;20739;-81
2023/01/04 04:33:22;;;;;;;9.87;6.97;;;9.80;99.90;;;;;;5075828;28;20101;-80
2023/01/04 04:35:53;;;;;;;10.90;8.13;;;9.90;99.90;;;;;;5057985;28;20135;-80
2023/01/04 04:38:19;;;;;;;10.87;8.47;;;9.90;99.90;;;;;;5075726;28;20059;-81
2023/01/04 04:43:29;;;;;;;12.20;8.98;;;9.90;99.90;;;;;;5075672;28;20278;-81
2023/01/04 04:45:55;;;;;;;14.73;9.27;;;10.00;99.90;;;;;;5057741;28;20048;-81
2023/01/04 04:48:21;;;;;;;12.60;9.33;;;10.00;99.90;;;;;;5076200;28;20389;-81
2023/01/04 04:50:47;;;;;;;12.03;9.00;;;10.00;99.90;;;;;;5058128;28;20597;-82
2023/01/04 04:53:12;;;;;;;11.67;8.53;;;10.00;99.90;;;;;;5075173;28;20048;-81
2023/01/04 04:55:38;;;;;;;9.97;7.70;;;10.10;99.90;;;;;;5075455;28;20131;-81
2023/01/04 04:58:04;;;;;;;9.70;7.90;;;10.10;99.90;;;;;;5075002;28;20048;-81
2023/01/04 05:00:29;;;;;;;11.00;8.37;;;10.10;99.90;;;;;;5057929;28;20036;-80
2023/01/04 05:02:59;;;;;;;11.57;8.93;;;10.20;99.90;;;;;;5075825;28;20056;-81
2023/01/04 05:05:25;;;;;;;11.13;8.77;;;10.20;99.90;;;;;;5053645;28;20488;-81
2023/01/04 05:07:50;;;;;;;9.63;7.07;;;10.20;99.90;;;;;;5054833;28;20283;-81
2023/01/04 05:10:16;;;;;;;9.33;7.73;;;10.20;99.90;;;;;;5056054;28;20310;-81
2023/01/04 05:13:00;;;;;;;10.90;7.77;;;10.20;99.90;;;;;;5055244;28;20041;-81
2023/01/04 05:15:40;;;;;;;11.67;8.00;;;10.20;99.90;;;;;;5040606;28;20481;-81
2023/01/04 05:18:08;;;;;;;11.23;8.00;;;10.30;99.90;;;;;;5055346;28;20283;-81
2023/01/04 05:20:34;;;;;;;12.30;7.53;;;10.30;99.90;;;;;;5055039;28;20280;-82
2023/01/04 05:23:00;;;;;;;11.93;7.20;;;10.30;99.90;;;;;;5055217;28;20283;-81
2023/01/04 05:25:26;;;;;;;11.33;7.50;;;10.30;99.90;;;;;;5053784;28;20449;-80
2023/01/04 05:27:51;;;;;;;8.57;6.77;;;10.30;99.90;;;;;;5053869;28;20128;-80
2023/01/04 05:33:03;;;;;;;8.95;6.38;;;10.30;99.90;;;;;;5054794;28;20132;-80
2023/01/04 05:35:29;;;;;;;10.30;6.30;;;10.20;99.90;;;;;;5054689;28;20047;-79
2023/01/04 05:37:55;;;;;;;8.70;5.70;;;10.20;99.90;;;;;;5037055;28;20279;-78
2023/01/04 05:40:21;;;;;;;8.73;6.47;;;10.20;99.90;;;;;;5054614;28;20049;-80
2023/01/04 05:42:47;;;;;;;8.57;5.90;;;10.20;99.90;;;;;;5054553;28;20321;-83
2023/01/04 05:45:14;;;;;;;8.77;5.97;;;10.20;99.90;;;;;;5036563;28;20045;-82
2023/01/04 05:47:40;;;;;;;9.83;5.60;;;10.20;99.90;;;;;;5055034;28;20283;-81
2023/01/04 05:50:07;;;;;;;8.87;5.60;;;10.20;99.90;;;;;;5053487;28;20366;-81
2023/01/04 05:52:33;;;;;;;8.23;5.33;;;10.20;99.90;;;;;;5054328;28;20287;-81
2023/01/04 05:54:59;;;;;;;9.77;5.50;;;10.20;99.90;;;;;;5054276;28;20744;-82
2023/01/04 05:57:24;;;;;;;8.63;5.37;;;10.30;99.90;;;;;;5054345;28;20267;-82
2023/01/04 05:59:50;;;;;;;11.47;6.17;;;10.30;99.90;;;;;;5053805;28;20450;-82
2023/01/04 06:02:21;;;;;;;13.33;5.90;;;10.30;99.90;;;;;;5054213;28;20124;-82
2023/01/04 06:04:47;;;;;;;9.13;5.07;;;10.30;99.90;;;;;;5064005;28;20135;-81
2023/01/04 06:07:13;;;;;;;10.00;5.77;;;10.30;99.90;;;;;;5074539;28;20358;-81
2023/01/04 06:09:39;;;;;;;10.07;5.70;;;10.30;99.90;;;;;;5073982;28;20279;-81
2023/01/04 06:12:05;;;;;;;13.03;4.97;;;10.30;99.90;;;;;;5056771;28;20279;-81
2023/01/04 06:14:31;;;;;;;14.10;4.70;;;10.30;99.90;;;;;;5056075;28;20083;-81
2023/01/04 06:16:57;;;;;;;16.37;5.23;;;10.30;99.90;;;;;;5057025;28;20319;-80
2023/01/04 06:19:23;;;;;;;15.00;4.67;;;10.30;99.90;;;;;;5073861;28;20041;-80
2023/01/04 06:21:48;;;;;;;8.63;4.03;;;10.30;99.90;;;;;;5073856;28;20289;-80
2023/01/04 06:24:14;;;;;;;14.63;4.70;;;10.30;99.90;;;;;;5073705;28;20123;-82
2023/01/04 06:26:40;;;;;;;10.07;4.00;;;10.30;99.90;;;;;;5056128;28;20044;-81
2023/01/04 06:29:06;;;;;;;8.63;2.60;;;10.30;99.90;;;;;;5056419;28;20048;-82
2023/01/04 06:31:32;;;;;;;9.97;3.90;;;10.30;99.90;;;;;;5073732;28;20127;-81
2023/01/04 06:33:58;;;;;;;11.23;2.80;;;10.30;99.90;;;;;;5056278;28;20087;-83
2023/01/04 06:36:24;;;;;;;11.07;3.70;;;10.30;99.90;;;;;;5056827;28;20294;-81
2023/01/04 06:38:50;;;;;;;9.03;3.10;;;10.30;99.90;;;;;;5055758;28;20295;-82
2023/01/04 06:41:15;;;;;;;11.17;3.80;;;10.30;99.90;;;;;;5056804;28;20044;-82
2023/01/04 06:43:41;;;;;;;10.00;3.60;;;10.30;99.90;;;;;;5056439;28;20048;-83
2023/01/04 06:46:07;;;;;;;13.83;4.40;;;10.30;99.90;;;;;;5073513;28;20045;-82
2023/01/04 06:48:33;;;;;;;14.07;4.37;;;10.20;99.90;;;;;;5073541;28;20045;-82
2023/01/04 06:50:59;;;;;;;14.73;4.57;;;10.30;99.90;;;;;;5056025;28;20044;-82
2023/01/04 06:53:24;;;;;;;13.60;4.53;;;10.30;99.90;;;;;;5072215;28;20048;-82
2023/01/04 06:55:50;;;;;;;18.00;4.73;;;10.30;99.90;;;;;;5056614;28;20053;-81
2023/01/04 06:58:16;;;;;;;13.00;3.83;;;10.30;99.90;;;;;;5074278;28;20068;-81
2023/01/04 07:00:42;;;;;;;17.40;4.67;;;10.30;99.90;;;;;;5055832;28;20053;-81
2023/01/04 07:03:08;;;;;;;14.17;4.37;;;10.30;99.90;;;;;;5073351;28;20135;-82
2023/01/04 07:05:34;;;;;;;22.03;4.90;;;10.40;99.90;;;;;;5073456;28;20057;-82
2023/01/04 07:08:03;;;;;;;16.90;4.10;;;10.40;99.90;;;;;;5039522;28;20287;-83
2023/01/04 07:10:29;;;;;;;20.00;4.90;;;10.40;99.90;;;;;;5073101;28;20079;-82
2023/01/04 07:12:55;;;;;;;17.33;4.47;;;10.40;99.90;;;;;;5073366;28;20286;-82
2023/01/04 07:15:21;;;;;;;15.80;4.40;;;10.40;99.90;;;;;;5073293;28;20083;-83
2023/01/04 07:17:49;;;;;;;13.57;4.53;;;10.40;99.90;;;;;;5073278;28;20049;-82
2023/01/04 07:20:16;;;;;;;15.30;4.40;;;10.40;99.90;;;;;;5038928;28;20059;-82
2023/01/04 07:22:41;;;;;;;15.90;4.80;;;10.40;99.90;;;;;;5073221;28;20283;-82
2023/01/04 07:25:07;;;;;;;14.63;4.80;;;10.40;99.90;;;;;;5073376;28;20431;-82
2023/01/04 07:27:33;;;;;;;16.47;4.53;;;10.40;99.90;;;;;;5073725;28;20049;-82
2023/01/04 07:29:59;;;;;;;16.77;4.90;;;10.40;99.90;;;;;;5056218;28;20291;-84
2023/01/04 07:32:25;;;;;;;12.57;4.13;;;10.40;99.90;;;;;;5073354;28;20040;-82
2023/01/04 07:34:50;;;;;;;16.27;4.27;;;10.40;99.90;;;;;;5073049;28;20040;-82
2023/01/04 07:37:16;;;;;;;12.00;4.17;;;10.40;99.90;;;;;;5072713;28;20101;-81
2023/01/04 07:39:42;;;;;;;15.53;5.20;;;10.40;99.90;;;;;;5072752;28;20048;-80
2023/01/04 07:42:09;;;;;;;18.63;5.13;;;10.40;99.90;;;;;;5072985;28;20044;-82
2023/01/04 07:44:35;;;;;;;19.83;5.00;;;10.40;99.90;;;;;;5072901;28;20275;-81
2023/01/04 07:47:01;;;;;;;22.67;5.10;;;10.40;99.90;;;;;;5072987;28;20348;-83
2023/01/04 07:49:27;;;;;;;18.37;4.57;;;10.40;99.90;;;;;;5072910;28;20520;-81
2023/01/04 07:51:53;;;;;;;19.40;4.83;;;10.40;99.90;;;;;;5073717;28;20271;-81
2023/01/04 07:54:19;;;;;;;30.07;4.87;;;10.40;99.90;;;;;;5072804;28;20524;-81
2023/01/04 07:56:45;;;;;;;23.13;4.57;;;10.40;99.90;;;;;;5055534;28;20127;-81
2023/01/04 07:59:13;;;;;;;16.53;3.87;;;10.40;99.90;;;;;;5072810;28;20041;-82
2023/01/04 08:01:39;;;;;;;18.03;4.20;;;10.40;99.90;;;;;;5073389;28;20278;-88
2023/01/04 08:04:06;;;;;;;19.63;5.17;;;10.40;99.90;;;;;;5072922;28;20361;-80
2023/01/04 08:06:32;;;;;;;16.60;4.97;;;10.40;99.90;;;;;;5076217;28;20299;-86
2023/01/04 08:08:58;;;;;;;17.70;4.97;;;10.40;99.90;;;;;;5076288;28;20286;-86
2023/01/04 08:11:24;;;;;;;21.10;4.70;;;10.40;99.90;;;;;;5076542;28;20329;-83
2023/01/04 08:13:51;;;;;;;18.67;5.03;;;10.40;99.90;;;;;;5076229;28;20743;-84
2023/01/04 08:16:30;;;;;;;21.23;5.23;;;10.40;99.90;;;;;;5076194;28;20040;-84
2023/01/04 08:18:58;;;;;;;15.27;3.87;;;10.40;99.90;;;;;;5076424;28;20274;-84
2023/01/04 08:21:24;;;;;;;17.90;4.20;;;10.40;99.90;;;;;;5075981;28;20290;-84
2023/01/04 08:23:52;;;;;;;15.40;3.90;;;10.40;99.90;;;;;;5076091;28;20356;-85
2023/01/04 08:26:18;;;;;;;18.37;4.43;;;10.40;99.90;;;;;;5076752;28;20299;-84
2023/01/04 08:28:44;;;;;;;14.93;4.13;;;10.40;99.90;;;;;;5076237;28;20275;-83
2023/01/04 08:31:17;;;;;;;16.03;4.43;;;10.40;99.90;;;;;;5076143;28;20673;-83
2023/01/04 08:33:44;;;;;;;19.10;4.23;;;10.40;99.90;;;;;;5075919;28;20275;-84
2023/01/04 08:36:16;;;;;;;19.77;4.30;;;10.40;99.90;;;;;;5075812;28;20377;-84
2023/01/04 08:38:41;;;;;;;22.23;4.23;;;10.40;99.90;;;;;;5076645;28;20329;-85
2023/01/04 08:41:07;;;;;;;21.03;4.17;;;10.40;99.90;;;;;;5058388;28;20658;-84
2023/01/04 08:43:36;;;;;;;19.03;3.97;;;10.50;99.90;;;;;;5057873;28;20048;-86
2023/01/04 08:46:04;;;;;;;19.73;4.20;;;10.50;99.90;;;;;;5057386;28;20299;-91
2023/01/04 08:48:31;;;;;;;19.93;4.17;;;10.50;99.90;;;;;;5060026;28;20283;-89
2023/01/04 08:51:12;;;;;;;11.83;3.73;;;10.50;99.90;;;;;;5058534;28;20286;-86
2023/01/04 08:53:38;;;;;;;21.20;3.63;;;10.60;99.90;;;;;;5058798;28;20291;-88
2023/01/04 08:56:05;;;;;;;17.70;3.43;;;10.60;99.90;;;;;;5057394;28;20287;-90
2023/01/04 08:58:34;;;;;;;15.23;4.40;;;10.60;99.90;;;;;;5075180;28;20294;-89
2023/01/04 09:01:01;;;;;;;17.73;3.33;;;10.60;99.90;;;;;;5075284;28;20287;-83
2023/01/04 09:03:27;;;;;;;15.30;3.00;;;10.60;99.90;;;;;;5075113;28;20392;-89
2023/01/04 09:05:53;;;;;;;12.17;3.47;;;10.70;99.90;;;;;;5057336;28;20356;-87
2023/01/04 09:08:19;;;;;;;14.20;3.00;;;10.70;99.90;;;;;;5075720;28;20362;-92
2023/01/04 09:10:45;;;;;;;11.83;2.93;;;10.70;99.90;;;;;;5075575;28;20423;-89
2023/01/04 09:13:10;;;;;;;16.07;3.30;;;10.70;99.90;;;;;;5040603;28;20381;-83
2023/01/04 09:15:36;;;;;;;16.87;3.27;;;10.70;99.90;;;;;;5056856;28;20094;-82
2023/01/04 09:18:03;;;;;;;13.87;2.60;;;10.70;99.90;;;;;;5056660;28;20052;-87
2023/01/04 09:20:29;;;;;;;10.13;2.30;;;10.70;99.90;;;;;;5074658;28;20492;-77
2023/01/04 09:22:57;;;;;;;14.70;2.80;;;10.80;99.90;;;;;;5057613;28;20287;-85
2023/01/04 09:25:23;;;;;;;12.83;2.97;;;10.80;99.90;;;;;;5074603;28;20040;-83
2023/01/04 09:27:48;;;;;;;18.17;3.10;;;10.80;99.90;;;;;;5074549;28;20305;-85
2023/01/04 09:30:14;;;;;;;14.70;3.17;;;10.90;99.90;;;;;;5056832;28;20437;-88
2023/01/04 09:32:40;;;;;;;14.23;3.17;;;10.80;99.90;;;;;;5074621;28;20052;-86
2023/01/04 09:35:07;;;;;;;13.60;3.30;;;10.90;99.90;;;;;;5023919;28;20037;-81
2023/01/04 09:37:32;;;;;;;17.60;3.67;;;10.90;99.90;;;;;;5056918;28;20049;-86
2023/01/04 09:39:58;;;;;;;26.27;4.53;;;10.90;99.90;;;;;;5056965;28;20283;-82
2023/01/04 09:42:31;;;;;;;14.93;3.20;;;10.90;99.90;;;;;;5074451;28;20174;-83
2023/01/04 09:45:25;;;;;;;15.83;3.77;;;10.90;99.90;;;;;;5074729;28;20047;-89
2023/01/04 09:47:53;;;;;;;21.77;4.03;;;11.00;99.90;;;;;;5074451;28;20275;-87
2023/01/04 09:50:49;;;;;;;24.53;4.10;;;11.00;99.90;;;;;;5074325;28;20365;-79
2023/01/04 09:53:17;;;;;;;22.65;4.15;;;11.00;99.90;;;;;;5034869;28;20775;-84
2023/01/04 09:55:49;;;;;;;26.30;4.70;;;11.00;99.90;;;;;;5073783;28;20504;-80
2023/01/04 09:58:27;;;;;;;22.57;4.47;;;11.00;99.90;;;;;;5074180;28;20344;-84
2023/01/04 10:01:00;;;;;;;25.97;4.70;;;11.00;99.90;;;;;;5073894;28;20319;-84
2023/01/04 10:03:38;;;;;;;27.10;4.77;;;11.10;99.90;;;;;;5073978;28;20332;-84
2023/01/04 10:06:08;;;;;;;33.33;5.07;;;11.10;99.90;;;;;;5074124;28;20329;-84
2023/01/04 10:08:35;;;;;;;29.30;5.60;;;11.20;99.90;;;;;;5074002;28;20278;-84
2023/01/04 10:11:24;;;;;;;33.67;5.20;;;11.20;99.90;;;;;;5056345;28;20283;-84
2023/01/04 10:14:12;;;;;;;31.80;7.03;;;11.20;99.90;;;;;;5074226;28;20761;-84
2023/01/04 10:16:50;;;;;;;39.40;6.13;;;11.20;99.90;;;;;;5074438;28;20303;-83
2023/01/04 10:19:36;;;;;;;31.77;4.63;;;11.20;99.90;;;;;;5073793;28;20290;-84
2023/01/04 10:22:10;;;;;;;39.10;6.77;;;11.20;99.90;;;;;;5073901;28;20366;-84
2023/01/04 10:25:01;;;;;;;34.58;5.75;;;11.30;99.90;;;;;;5074578;28;20297;-84
2023/01/04 10:27:26;;;;;;;44.83;7.47;;;11.20;99.90;;;;;;5074120;28;20067;-84
2023/01/04 10:30:29;;;;;;;36.17;6.27;;;11.30;99.90;;;;;;5073825;28;20370;-84
2023/01/04 10:33:04;;;;;;;38.77;6.73;;;11.30;99.90;;;;;;5056048;28;20053;-84
2023/01/04 10:35:34;;;;;;;45.97;6.65;;;11.30;99.90;;;;;;5073639;28;20287;-84
2023/01/04 10:38:03;;;;;;;43.13;6.93;;;11.40;99.90;;;;;;5056169;28;20044;-84
2023/01/04 10:40:34;;;;;;;44.90;6.97;;;11.40;99.90;;;;;;5073540;28;20306;-84
2023/01/04 10:43:15;;;;;;;40.13;7.20;;;11.40;99.90;;;;;;5073819;28;20282;-84
2023/01/04 10:45:53;;;;;;;48.67;6.63;;;11.40;99.90;;;;;;5055576;28;20302;-84
2023/01/04 10:48:26;;;;;;;43.13;7.03;;;11.40;99.90;;;;;;5055947;28;20340;-84
2023/01/04 10:50:58;;;;;;;49.73;7.23;;;11.50;99.90;;;;;;5074070;28;20619;-85
2023/01/04 10:53:32;;;;;;;50.93;8.37;;;11.50;99.90;;;;;;5073448;28;20326;-84
2023/01/04 10:56:19;;;;;;;43.67;8.10;;;11.50;99.90;;;;;;5073468;28;20362;-84
2023/01/04 10:59:15;;;;;;;42.03;7.70;;;11.50;99.90;;;;;;5074192;28;20287;-84
2023/01/04 11:01:44;;;;;;;;;;;11.50;99.90;;;;;;5056432;28;20287;-85
2023/01/04 11:04:34;;;;;;;38.00;7.97;;;11.50;99.90;;;;;;5055418;28;19928;-86
2023/01/04 11:07:22;;;;;;;57.73;8.40;;;11.50;99.90;;;;;;5073382;28;20282;-84
2023/01/04 11:10:03;;;;;;;57.30;8.30;;;11.50;99.90;;;;;;5073831;28;20316;-85
2023/01/04 11:12:29;;;;;;;51.77;8.90;;;11.40;99.90;;;;;;5056514;28;20290;-84
2023/01/04 11:14:55;;;;;;;49.33;7.77;;;11.40;99.90;;;;;;5073289;28;20804;-84
2023/01/04 11:17:22;;;;;;;51.00;6.73;;;11.40;99.90;;;;;;5073248;28;20079;-83
2023/01/04 11:19:48;;;;;;;51.03;8.50;;;11.40;99.90;;;;;;5073807;28;20132;-82
2023/01/04 11:22:27;;;;;;;43.73;7.73;;;11.40;99.90;;;;;;5039649;28;20382;-82
2023/01/04 11:25:00;;;;;;;40.17;6.83;;;11.40;99.90;;;;;;5073102;28;20403;-82
2023/01/04 11:27:30;;;;;;;50.90;8.17;;;11.40;99.90;;;;;;5073173;28;20277;-83
2023/01/04 11:30:00;;;;;;;42.33;6.67;;;11.50;99.90;;;;;;5055192;28;20286;-83
2023/01/04 11:32:45;;;;;;;43.57;6.80;;;11.50;99.90;;;;;;5039078;28;20295;-83
2023/01/04 11:35:11;;;;;;;39.00;6.78;;;11.50;99.90;;;;;;5073094;28;20267;-83
2023/01/04 11:37:39;;;;;;;41.07;7.20;;;11.50;99.90;;;;;;5072996;28;20051;-83
2023/01/04 11:40:17;;;;;;;44.70;7.00;;;11.50;99.90;;;;;;5057287;28;20041;-83
2023/01/04 11:43:15;;;;;;;43.53;6.23;;;11.50;99.90;;;;;;5077677;28;20611;-83
2023/01/04 11:45:56;;;;;;;39.47;6.40;;;11.50;99.90;;;;;;5076676;28;20330;-83
2023/01/04 11:48:34;;;;;;;40.30;7.00;;;11.50;99.90;;;;;;5076748;28;20267;-84
2023/01/04 11:51:00;;;;;;;36.53;6.27;;;11.60;99.90;;;;;;5076618;28;20344;-84
2023/01/04 11:53:35;;;;;;;31.60;5.70;;;11.50;99.90;;;;;;5077331;28;20286;-84
2023/01/04 11:56:15;;;;;;;;;;;11.60;99.90;;;;;;5059176;28;20271;-84
2023/01/04 11:58:42;;;;;;;33.87;5.73;;;11.60;99.90;;;;;;5076453;28;19920;-84
2023/01/04 12:01:20;;;;;;;31.50;6.13;;;11.60;99.90;;;;;;5076331;28;20281;-84
2023/01/04 12:03:46;;;;;;;36.57;5.50;;;11.60;99.90;;;;;;5077257;28;20274;-85
2023/01/04 12:06:29;;;;;;;25.50;4.50;;;11.60;99.90;;;;;;5077035;28;20303;-85
2023/01/04 12:08:55;;;;;;;25.73;4.97;;;11.60;99.90;;;;;;5076038;28;20631;-84
2023/01/04 12:11:34;;;;;;;29.47;5.90;;;11.60;99.90;;;;;;5058792;28;20287;-84
2023/01/04 12:14:02;;;;;;;26.17;5.10;;;11.60;99.90;;;;;;5058367;28;20049;-84
2023/01/04 12:16:35;;;;;;;21.80;3.93;;;11.60;99.90;;;;;;5058740;28;20724;-84
2023/01/04 12:19:03;;;;;;;25.83;4.13;;;11.60;99.90;;;;;;5076918;28;20337;-84
2023/01/04 12:21:33;;;;;;;21.77;3.80;;;11.70;99.90;;;;;;5058511;28;20336;-85
2023/01/04 12:23:59;;;;;;;17.30;4.00;;;11.70;99.90;;;;;;5059350;28;20282;-83
2023/01/04 12:26:25;;;;;;;18.47;3.47;;;11.70;99.90;;;;;;5058095;28;20623;-85
2023/01/04 12:29:22;;;;;;;19.00;3.37;;;11.70;99.90;;;;;;5075972;28;20427;-85
2023/01/04 12:31:52;;;;;;;26.30;4.10;;;11.70;99.90;;;;;;5075954;28;20282;-85
2023/01/04 12:34:21;;;;;;;18.00;3.63;;;11.70;99.90;;;;;;5042379;28;20295;-85
2023/01/04 12:36:49;;;;;;;17.83;3.40;;;11.70;99.90;;;;;;5076090;28;20309;-85
2023/01/04 12:39:15;;;;;;;19.73;4.37;;;11.70;99.90;;;;;;5057662;28;20835;-85
2023/01/04 12:41:42;;;;;;;24.27;3.83;;;11.70;99.90;;;;;;5076699;28;20295;-84
2023/01/04 12:44:35;;;;;;;15.40;3.63;;;11.70;99.90;;;;;;5075718;28;20056;-84
2023/01/04 12:50:16;;;;;;;16.73;3.50;;;11.60;99.90;;;;;;5076183;28;20277;-84
2023/01/04 12:52:50;;;;;;;23.47;4.57;;;11.60;99.90;;;;;;5057705;28;20290;-84
2023/01/04 12:55:30;;;;;;;27.05;5.70;;;11.60;99.90;;;;;;5075859;28;20293;-84
2023/01/04 12:57:57;;;;;;;29.67;4.10;;;11.60;99.90;;;;;;5057587;28;20502;-84
2023/01/04 13:00:49;;;;;;;24.23;4.87;;;11.60;99.90;;;;;;5075972;28;20275;-83
2023/01/04 13:03:17;;;;;;;25.67;4.90;;;11.60;99.90;;;;;;5075212;28;20587;-84
2023/01/04 13:05:49;;;;;;;26.47;5.30;;;11.60;99.90;;;;;;5074786;28;20303;-84
2023/01/04 13:08:15;;;;;;;24.27;4.77;;;11.50;99.90;;;;;;5075800;28;20280;-83
2023/01/04 13:10:42;;;;;;;29.03;5.07;;;11.50;99.90;;;;;;5058354;28;20298;-84
2023/01/04 13:13:45;;;;;;;31.67;5.60;;;11.50;99.90;;;;;;5075123;28;20538;-82
2023/01/04 13:16:26;;;;;;;28.23;4.87;;;11.50;99.90;;;;;;4974160;28;20301;-83
2023/01/04 13:18:55;;;;;;;28.17;4.67;;;11.50;99.90;;;;;;4974812;28;20310;-83
2023/01/04 13:21:39;;;;;;;27.90;5.87;;;11.50;99.90;;;;;;5033229;28;20291;-83
2023/01/04 13:24:27;;;;;;;34.07;5.10;;;11.50;99.90;;;;;;5057920;28;20275;-84
2023/01/04 13:26:54;;;;;;;33.57;5.90;;;11.50;99.90;;;;;;5056867;28;20310;-83
2023/01/04 13:29:24;;;;;;;29.57;5.73;;;11.50;99.90;;;;;;5074784;28;20310;-83
2023/01/04 13:32:11;;;;;;;30.47;5.87;;;11.50;99.90;;;;;;5057420;28;20295;-83
2023/01/04 13:35:00;;;;;;;29.70;5.30;;;11.50;99.90;;;;;;5074692;28;20279;-83
2023/01/04 13:37:31;;;;;;;26.00;5.23;;;11.50;99.90;;;;;;5075152;28;20271;-83
2023/01/04 13:40:15;;;;;;;29.77;5.03;;;11.50;99.90;;;;;;5074941;28;20290;-84
2023/01/04 13:42:45;;;;;;;31.40;6.10;;;11.50;99.90;;;;;;5074635;28;20754;-83
2023/01/04 13:45:46;;;;;;;29.83;5.70;;;11.40;99.90;;;;;;5074594;28;20382;-83
2023/01/04 13:48:14;;;;;;;31.67;5.63;;;11.50;99.90;;;;;;5073925;28;20381;-83
2023/01/04 13:50:45;;;;;;;23.00;5.10;;;11.50;99.90;;;;;;5074188;28;20321;-83